LEAM/LEI METAR and TAF weather

Enter ICAO airport designator
Station Type Date Time Source
LEAM METAR 2020/04/07 07:30 UTC NOAA

LEAM 070730Z AUTO 07009KT 030V100 CAVOK 16/12 Q1024


Station Type Date Time Source
LEAM Decoded METAR 2020/04/07 07:30 UTC NOAA

Almeria / Aeropuerto, Spain (LEAM) 36-51N 002-23W 21M
Apr 07, 2020 - 03:30 AM EDT / 2020.04.07 0730 UTC
Wind: from the ENE (070 degrees) at 10 MPH (9 KT) (direction variable):0
Visibility: greater than 7 mile(s):0
Temperature: 60 F (16 C)
Dew Point: 53 F (12 C)
Relative Humidity: 77%
Pressure (altimeter): 30.24 in. Hg (1024 hPa)
ob: LEAM 070730Z AUTO 07009KT 030V100 CAVOK 16/12 Q1024
cycle: 7

Station Type Date Time Source
LEAM TAF 2020/04/07 03:31 UTC NOAA

TAF LEAM 070200Z 0703/0803 03005KT 9999 FEW030 TX23/0714Z TN12/0706Z
BECMG 0709/0711 09014KT
BECMG 0719/0721 35005KT

Example: see airport list